Tala, Argentina
Current Conditions -  °F | °C
As of 1:00 AM on Sunday 26 Oct 2014 (Local Time) from SANT Reporting Station
Clear Clear  
Wind Chill: 25°   Ceiling: Unl
Heat Index: 26°   Visibility: 5mi
Dew Point: 11°   Wind: 9mph
Humidity: 41%   Direction: 360°N
Pressure: 29.77"   Gusts: NA
Location:  26.12°S, 65.28°W
Report Text: SANT 260400Z 36008KT 8000 NSC 25/11 Q1008
Loading
Personal Weather Stations






























Interactive Weather Map
Tropical Storm Tracking
New forecast layout! Learn more

10-Day Weather Forecast

Advertisements
Track Severe Weather on mobile